sensor_id;sensor_type;location;lat;lon;timestamp;P1;durP1;ratioP1;P2;durP2;ratioP2
21800;SDS011;11062;51.164;16.924;2022-10-23T00:01:43;32.00;;;9.15;;
21800;SDS011;11062;51.164;16.924;2022-10-23T00:04:11;33.05;;;7.70;;
21800;SDS011;11062;51.164;16.924;2022-10-23T00:06:37;27.45;;;6.95;;
21800;SDS011;11062;51.164;16.924;2022-10-23T00:09:04;29.67;;;7.22;;
21800;SDS011;11062;51.164;16.924;2022-10-23T00:11:32;34.92;;;8.48;;
21800;SDS011;11062;51.164;16.924;2022-10-23T00:16:56;35.60;;;10.05;;
21800;SDS011;11062;51.164;16.924;2022-10-23T00:19:40;36.80;;;11.10;;
21800;SDS011;11062;51.164;16.924;2022-10-23T00:22:09;21.20;;;9.48;;
21800;SDS011;11062;51.164;16.924;2022-10-23T00:24:40;28.77;;;10.55;;
21800;SDS011;11062;51.164;16.924;2022-10-23T00:27:15;39.75;;;11.55;;
21800;SDS011;11062;51.164;16.924;2022-10-23T00:29:47;23.00;;;7.72;;
21800;SDS011;11062;51.164;16.924;2022-10-23T00:32:17;19.58;;;7.57;;
21800;SDS011;11062;51.164;16.924;2022-10-23T00:34:50;32.95;;;11.15;;
21800;SDS011;11062;51.164;16.924;2022-10-23T00:37:22;29.23;;;9.00;;
21800;SDS011;11062;51.164;16.924;2022-10-23T00:39:50;22.23;;;8.45;;
21800;SDS011;11062;51.164;16.924;2022-10-23T00:42:19;25.45;;;9.38;;
21800;SDS011;11062;51.164;16.924;2022-10-23T00:47:18;25.90;;;9.65;;
21800;SDS011;11062;51.164;16.924;2022-10-23T00:49:44;30.52;;;9.82;;
21800;SDS011;11062;51.164;16.924;2022-10-23T00:52:11;32.95;;;8.77;;
21800;SDS011;11062;51.164;16.924;2022-10-23T00:54:39;37.20;;;9.75;;
21800;SDS011;11062;51.164;16.924;2022-10-23T00:57:07;25.60;;;8.82;;
21800;SDS011;11062;51.164;16.924;2022-10-23T00:59:39;28.13;;;8.73;;
21800;SDS011;11062;51.164;16.924;2022-10-23T01:02:05;38.58;;;9.43;;
21800;SDS011;11062;51.164;16.924;2022-10-23T01:04:31;31.45;;;10.02;;
21800;SDS011;11062;51.164;16.924;2022-10-23T01:10:10;27.02;;;8.98;;
21800;SDS011;11062;51.164;16.924;2022-10-23T01:18:52;42.47;;;11.13;;
21800;SDS011;11062;51.164;16.924;2022-10-23T01:29:47;29.00;;;8.70;;
21800;SDS011;11062;51.164;16.924;2022-10-23T01:32:33;27.85;;;8.80;;
21800;SDS011;11062;51.164;16.924;2022-10-23T01:35:12;29.58;;;8.80;;
21800;SDS011;11062;51.164;16.924;2022-10-23T01:37:44;30.27;;;8.43;;
21800;SDS011;11062;51.164;16.924;2022-10-23T01:40:17;33.72;;;8.43;;
21800;SDS011;11062;51.164;16.924;2022-10-23T01:42:52;27.33;;;8.55;;
21800;SDS011;11062;51.164;16.924;2022-10-23T01:56:47;29.08;;;7.75;;
21800;SDS011;11062;51.164;16.924;2022-10-23T01:59:31;20.00;;;7.10;;
21800;SDS011;11062;51.164;16.924;2022-10-23T02:02:26;31.98;;;8.30;;
21800;SDS011;11062;51.164;16.924;2022-10-23T02:04:56;33.50;;;8.10;;
21800;SDS011;11062;51.164;16.924;2022-10-23T02:07:31;34.67;;;8.45;;
21800;SDS011;11062;51.164;16.924;2022-10-23T02:10:02;29.33;;;8.02;;
21800;SDS011;11062;51.164;16.924;2022-10-23T02:12:32;36.60;;;8.95;;
21800;SDS011;11062;51.164;16.924;2022-10-23T02:15:18;31.70;;;8.85;;
21800;SDS011;11062;51.164;16.924;2022-10-23T02:18:07;31.85;;;8.00;;
21800;SDS011;11062;51.164;16.924;2022-10-23T02:20:41;26.90;;;7.95;;
21800;SDS011;11062;51.164;16.924;2022-10-23T02:23:18;22.50;;;6.93;;
21800;SDS011;11062;51.164;16.924;2022-10-23T02:26:16;18.75;;;6.18;;
21800;SDS011;11062;51.164;16.924;2022-10-23T02:29:12;28.02;;;8.63;;
21800;SDS011;11062;51.164;16.924;2022-10-23T02:31:45;27.42;;;8.02;;
21800;SDS011;11062;51.164;16.924;2022-10-23T02:34:14;25.88;;;7.65;;
21800;SDS011;11062;51.164;16.924;2022-10-23T02:36:43;22.95;;;7.15;;
21800;SDS011;11062;51.164;16.924;2022-10-23T02:39:12;26.17;;;7.22;;
21800;SDS011;11062;51.164;16.924;2022-10-23T02:44:07;34.25;;;8.45;;
21800;SDS011;11062;51.164;16.924;2022-10-23T02:50:02;30.13;;;8.80;;
21800;SDS011;11062;51.164;16.924;2022-10-23T02:55:30;46.25;;;9.90;;
21800;SDS011;11062;51.164;16.924;2022-10-23T02:58:25;31.40;;;8.38;;
21800;SDS011;11062;51.164;16.924;2022-10-23T03:01:14;33.67;;;8.45;;
21800;SDS011;11062;51.164;16.924;2022-10-23T03:03:55;26.90;;;8.02;;
21800;SDS011;11062;51.164;16.924;2022-10-23T03:11:37;282.75;;;27.60;;
21800;SDS011;11062;51.164;16.924;2022-10-23T03:55:42;40.53;;;8.50;;
21800;SDS011;11062;51.164;16.924;2022-10-23T03:58:10;29.90;;;7.82;;
21800;SDS011;11062;51.164;16.924;2022-10-23T04:00:36;25.95;;;7.47;;
21800;SDS011;11062;51.164;16.924;2022-10-23T04:03:02;32.90;;;6.95;;
21800;SDS011;11062;51.164;16.924;2022-10-23T04:05:28;21.63;;;6.63;;
21800;SDS011;11062;51.164;16.924;2022-10-23T04:07:57;29.00;;;7.07;;
21800;SDS011;11062;51.164;16.924;2022-10-23T04:10:26;27.13;;;7.13;;
21800;SDS011;11062;51.164;16.924;2022-10-23T04:12:52;19.05;;;7.10;;
21800;SDS011;11062;51.164;16.924;2022-10-23T04:15:19;22.77;;;6.75;;
21800;SDS011;11062;51.164;16.924;2022-10-23T04:34:47;27.67;;;6.93;;
21800;SDS011;11062;51.164;16.924;2022-10-23T04:37:14;19.73;;;6.25;;
21800;SDS011;11062;51.164;16.924;2022-10-23T04:44:51;16.55;;;5.05;;
21800;SDS011;11062;51.164;16.924;2022-10-23T04:47:20;21.08;;;5.47;;
21800;SDS011;11062;51.164;16.924;2022-10-23T04:49:46;32.13;;;5.85;;
21800;SDS011;11062;51.164;16.924;2022-10-23T04:52:15;39.22;;;6.07;;
21800;SDS011;11062;51.164;16.924;2022-10-23T04:54:41;36.83;;;6.40;;
21800;SDS011;11062;51.164;16.924;2022-10-23T04:57:07;17.92;;;5.75;;
21800;SDS011;11062;51.164;16.924;2022-10-23T04:59:33;23.85;;;5.15;;
21800;SDS011;11062;51.164;16.924;2022-10-23T05:02:01;27.95;;;5.97;;
21800;SDS011;11062;51.164;16.924;2022-10-23T05:20:00;312.67;;;29.38;;
21800;SDS011;11062;51.164;16.924;2022-10-23T05:22:30;41.10;;;7.20;;
21800;SDS011;11062;51.164;16.924;2022-10-23T05:24:59;30.35;;;6.20;;
21800;SDS011;11062;51.164;16.924;2022-10-23T05:27:26;41.72;;;7.63;;
21800;SDS011;11062;51.164;16.924;2022-10-23T05:29:52;24.90;;;7.05;;
21800;SDS011;11062;51.164;16.924;2022-10-23T05:32:18;51.00;;;9.00;;
21800;SDS011;11062;51.164;16.924;2022-10-23T05:42:45;46.92;;;7.43;;
21800;SDS011;11062;51.164;16.924;2022-10-23T05:45:11;22.35;;;5.55;;
21800;SDS011;11062;51.164;16.924;2022-10-23T05:47:38;26.08;;;5.10;;
21800;SDS011;11062;51.164;16.924;2022-10-23T05:50:09;29.45;;;6.30;;
21800;SDS011;11062;51.164;16.924;2022-10-23T05:52:44;25.08;;;6.22;;
21800;SDS011;11062;51.164;16.924;2022-10-23T05:55:15;19.37;;;5.20;;
21800;SDS011;11062;51.164;16.924;2022-10-23T05:57:42;34.58;;;5.97;;
21800;SDS011;11062;51.164;16.924;2022-10-23T06:00:08;33.00;;;5.82;;
21800;SDS011;11062;51.164;16.924;2022-10-23T06:02:35;31.23;;;6.00;;
21800;SDS011;11062;51.164;16.924;2022-10-23T06:05:01;45.08;;;7.75;;
21800;SDS011;11062;51.164;16.924;2022-10-23T06:07:28;45.25;;;7.72;;
21800;SDS011;11062;51.164;16.924;2022-10-23T06:09:54;39.15;;;6.75;;
21800;SDS011;11062;51.164;16.924;2022-10-23T06:12:20;33.50;;;6.68;;
21800;SDS011;11062;51.164;16.924;2022-10-23T06:14:47;29.10;;;6.47;;
21800;SDS011;11062;51.164;16.924;2022-10-23T06:17:13;39.08;;;7.55;;
21800;SDS011;11062;51.164;16.924;2022-10-23T06:19:40;42.90;;;9.35;;
21800;SDS011;11062;51.164;16.924;2022-10-23T06:22:08;40.08;;;8.85;;
21800;SDS011;11062;51.164;16.924;2022-10-23T06:24:34;31.45;;;10.05;;
21800;SDS011;11062;51.164;16.924;2022-10-23T06:32:10;38.53;;;8.07;;
21800;SDS011;11062;51.164;16.924;2022-10-23T06:34:36;34.13;;;7.15;;
21800;SDS011;11062;51.164;16.924;2022-10-23T06:37:02;27.50;;;7.05;;
21800;SDS011;11062;51.164;16.924;2022-10-23T06:39:34;35.45;;;9.57;;
21800;SDS011;11062;51.164;16.924;2022-10-23T06:47:50;34.65;;;8.27;;
21800;SDS011;11062;51.164;16.924;2022-10-23T06:50:39;38.63;;;8.77;;
21800;SDS011;11062;51.164;16.924;2022-10-23T07:08:31;68.53;;;12.38;;
21800;SDS011;11062;51.164;16.924;2022-10-23T07:19:38;27.20;;;11.88;;
21800;SDS011;11062;51.164;16.924;2022-10-23T07:28:06;65.43;;;11.50;;
21800;SDS011;11062;51.164;16.924;2022-10-23T07:30:58;41.95;;;9.55;;
21800;SDS011;11062;51.164;16.924;2022-10-23T07:33:59;429.50;;;36.13;;
21800;SDS011;11062;51.164;16.924;2022-10-23T08:42:19;31.52;;;7.07;;
21800;SDS011;11062;51.164;16.924;2022-10-23T08:50:48;47.33;;;7.80;;
21800;SDS011;11062;51.164;16.924;2022-10-23T08:56:29;53.75;;;8.07;;
21800;SDS011;11062;51.164;16.924;2022-10-23T08:59:00;61.00;;;8.75;;
21800;SDS011;11062;51.164;16.924;2022-10-23T09:04:00;66.50;;;9.30;;
21800;SDS011;11062;51.164;16.924;2022-10-23T09:14:49;72.00;;;9.32;;
21800;SDS011;11062;51.164;16.924;2022-10-23T09:17:39;59.38;;;8.40;;
21800;SDS011;11062;51.164;16.924;2022-10-23T09:22:49;49.35;;;7.63;;
21800;SDS011;11062;51.164;16.924;2022-10-23T09:25:23;56.40;;;8.15;;
21800;SDS011;11062;51.164;16.924;2022-10-23T09:27:52;64.72;;;8.23;;
21800;SDS011;11062;51.164;16.924;2022-10-23T09:30:38;63.20;;;8.30;;
21800;SDS011;11062;51.164;16.924;2022-10-23T09:35:54;62.08;;;7.90;;
21800;SDS011;11062;51.164;16.924;2022-10-23T09:38:52;66.45;;;8.60;;
21800;SDS011;11062;51.164;16.924;2022-10-23T09:41:20;61.38;;;7.97;;
21800;SDS011;11062;51.164;16.924;2022-10-23T09:54:45;39.97;;;6.20;;
21800;SDS011;11062;51.164;16.924;2022-10-23T09:59:51;90.72;;;10.40;;
21800;SDS011;11062;51.164;16.924;2022-10-23T10:02:31;50.75;;;6.70;;
21800;SDS011;11062;51.164;16.924;2022-10-23T10:04:59;44.55;;;6.97;;
21800;SDS011;11062;51.164;16.924;2022-10-23T10:10:36;36.28;;;6.35;;
21800;SDS011;11062;51.164;16.924;2022-10-23T10:19:04;37.55;;;6.32;;
21800;SDS011;11062;51.164;16.924;2022-10-23T10:24:31;63.83;;;8.07;;
21800;SDS011;11062;51.164;16.924;2022-10-23T10:30:14;46.22;;;6.57;;
21800;SDS011;11062;51.164;16.924;2022-10-23T10:33:00;51.35;;;7.20;;
21800;SDS011;11062;51.164;16.924;2022-10-23T10:46:52;35.53;;;5.80;;
21800;SDS011;11062;51.164;16.924;2022-10-23T10:57:29;81.95;;;11.50;;
21800;SDS011;11062;51.164;16.924;2022-10-23T11:00:25;83.72;;;10.00;;
21800;SDS011;11062;51.164;16.924;2022-10-23T11:05:32;62.53;;;8.52;;
21800;SDS011;11062;51.164;16.924;2022-10-23T11:10:41;58.35;;;7.53;;
21800;SDS011;11062;51.164;16.924;2022-10-23T11:13:32;65.05;;;7.97;;
21800;SDS011;11062;51.164;16.924;2022-10-23T11:16:07;61.80;;;8.02;;
21800;SDS011;11062;51.164;16.924;2022-10-23T11:18:39;72.70;;;9.57;;
21800;SDS011;11062;51.164;16.924;2022-10-23T11:37:25;48.70;;;8.43;;
21800;SDS011;11062;51.164;16.924;2022-10-23T11:53:24;42.83;;;8.30;;
21800;SDS011;11062;51.164;16.924;2022-10-23T11:56:25;47.15;;;8.60;;
21800;SDS011;11062;51.164;16.924;2022-10-23T11:58:47;40.22;;;8.10;;
21800;SDS011;11062;51.164;16.924;2022-10-23T12:06:43;47.88;;;9.13;;
21800;SDS011;11062;51.164;16.924;2022-10-23T12:09:21;55.25;;;10.35;;
21800;SDS011;11062;51.164;16.924;2022-10-23T12:14:35;43.45;;;8.23;;
21800;SDS011;11062;51.164;16.924;2022-10-23T12:19:50;50.78;;;11.57;;
21800;SDS011;11062;51.164;16.924;2022-10-23T12:25:31;38.58;;;9.10;;
21800;SDS011;11062;51.164;16.924;2022-10-23T12:28:07;46.85;;;8.43;;
21800;SDS011;11062;51.164;16.924;2022-10-23T12:31:16;48.92;;;8.27;;
21800;SDS011;11062;51.164;16.924;2022-10-23T12:36:56;57.10;;;10.45;;
21800;SDS011;11062;51.164;16.924;2022-10-23T12:39:35;47.30;;;8.68;;
21800;SDS011;11062;51.164;16.924;2022-10-23T12:42:03;44.13;;;7.95;;
21800;SDS011;11062;51.164;16.924;2022-10-23T12:44:35;52.47;;;8.25;;
21800;SDS011;11062;51.164;16.924;2022-10-23T12:47:01;34.03;;;6.72;;
21800;SDS011;11062;51.164;16.924;2022-10-23T12:49:29;44.70;;;7.93;;
21800;SDS011;11062;51.164;16.924;2022-10-23T12:51:59;36.63;;;7.32;;
21800;SDS011;11062;51.164;16.924;2022-10-23T12:54:27;41.28;;;7.97;;
21800;SDS011;11062;51.164;16.924;2022-10-23T12:56:55;50.92;;;10.20;;
21800;SDS011;11062;51.164;16.924;2022-10-23T12:59:25;47.90;;;9.13;;
21800;SDS011;11062;51.164;16.924;2022-10-23T13:02:11;64.38;;;12.13;;
21800;SDS011;11062;51.164;16.924;2022-10-23T13:04:46;37.38;;;9.02;;
21800;SDS011;11062;51.164;16.924;2022-10-23T13:07:14;39.65;;;8.98;;
21800;SDS011;11062;51.164;16.924;2022-10-23T13:09:43;47.50;;;8.88;;
21800;SDS011;11062;51.164;16.924;2022-10-23T13:12:20;38.22;;;8.40;;
21800;SDS011;11062;51.164;16.924;2022-10-23T13:17:42;43.25;;;8.70;;
21800;SDS011;11062;51.164;16.924;2022-10-23T13:20:24;39.58;;;8.15;;
21800;SDS011;11062;51.164;16.924;2022-10-23T13:22:59;56.80;;;9.25;;
21800;SDS011;11062;51.164;16.924;2022-10-23T13:25:34;53.00;;;10.07;;
21800;SDS011;11062;51.164;16.924;2022-10-23T13:28:12;45.47;;;8.88;;
21800;SDS011;11062;51.164;16.924;2022-10-23T13:30:45;44.85;;;9.18;;
21800;SDS011;11062;51.164;16.924;2022-10-23T13:33:33;33.28;;;8.63;;
21800;SDS011;11062;51.164;16.924;2022-10-23T13:36:04;48.67;;;9.52;;
21800;SDS011;11062;51.164;16.924;2022-10-23T13:38:57;47.08;;;9.23;;
21800;SDS011;11062;51.164;16.924;2022-10-23T13:41:32;74.07;;;11.27;;
21800;SDS011;11062;51.164;16.924;2022-10-23T13:44:00;36.70;;;8.35;;
21800;SDS011;11062;51.164;16.924;2022-10-23T13:46:26;40.70;;;7.60;;
21800;SDS011;11062;51.164;16.924;2022-10-23T13:48:53;44.88;;;8.88;;
21800;SDS011;11062;51.164;16.924;2022-10-23T13:51:23;33.25;;;7.57;;
21800;SDS011;11062;51.164;16.924;2022-10-23T13:53:51;49.92;;;9.25;;
21800;SDS011;11062;51.164;16.924;2022-10-23T13:56:19;39.10;;;7.53;;
21800;SDS011;11062;51.164;16.924;2022-10-23T13:58:46;35.40;;;6.82;;
21800;SDS011;11062;51.164;16.924;2022-10-23T14:01:34;44.70;;;8.68;;
21800;SDS011;11062;51.164;16.924;2022-10-23T14:04:03;50.13;;;9.30;;
21800;SDS011;11062;51.164;16.924;2022-10-23T14:06:30;40.53;;;7.43;;
21800;SDS011;11062;51.164;16.924;2022-10-23T14:08:56;27.23;;;5.53;;
21800;SDS011;11062;51.164;16.924;2022-10-23T14:11:22;30.95;;;6.18;;
21800;SDS011;11062;51.164;16.924;2022-10-23T14:13:48;40.60;;;7.32;;
21800;SDS011;11062;51.164;16.924;2022-10-23T14:16:15;35.40;;;6.35;;
21800;SDS011;11062;51.164;16.924;2022-10-23T14:18:43;53.55;;;8.30;;
21800;SDS011;11062;51.164;16.924;2022-10-23T14:21:13;51.63;;;8.00;;
21800;SDS011;11062;51.164;16.924;2022-10-23T14:23:40;48.97;;;8.25;;
21800;SDS011;11062;51.164;16.924;2022-10-23T14:26:07;47.03;;;8.00;;
21800;SDS011;11062;51.164;16.924;2022-10-23T14:28:34;79.28;;;21.75;;
21800;SDS011;11062;51.164;16.924;2022-10-23T14:31:04;47.05;;;11.48;;
21800;SDS011;11062;51.164;16.924;2022-10-23T14:33:33;69.45;;;11.95;;
21800;SDS011;11062;51.164;16.924;2022-10-23T14:35:58;74.15;;;20.30;;
21800;SDS011;11062;51.164;16.924;2022-10-23T14:38:24;47.50;;;14.88;;
21800;SDS011;11062;51.164;16.924;2022-10-23T14:40:50;47.75;;;11.68;;
21800;SDS011;11062;51.164;16.924;2022-10-23T14:43:16;70.03;;;15.77;;
21800;SDS011;11062;51.164;16.924;2022-10-23T14:45:42;78.68;;;26.83;;
21800;SDS011;11062;51.164;16.924;2022-10-23T14:48:08;177.95;;;68.97;;
21800;SDS011;11062;51.164;16.924;2022-10-23T14:50:35;120.72;;;44.05;;
21800;SDS011;11062;51.164;16.924;2022-10-23T14:58:38;262.45;;;124.43;;
21800;SDS011;11062;51.164;16.924;2022-10-23T15:01:09;185.43;;;78.45;;
21800;SDS011;11062;51.164;16.924;2022-10-23T15:03:45;71.30;;;29.92;;
21800;SDS011;11062;51.164;16.924;2022-10-23T15:06:42;34.05;;;12.20;;
21800;SDS011;11062;51.164;16.924;2022-10-23T15:09:13;206.85;;;22.02;;
21800;SDS011;11062;51.164;16.924;2022-10-23T15:11:46;48.58;;;11.98;;
21800;SDS011;11062;51.164;16.924;2022-10-23T15:14:14;58.08;;;20.70;;
21800;SDS011;11062;51.164;16.924;2022-10-23T15:16:56;44.70;;;17.08;;
21800;SDS011;11062;51.164;16.924;2022-10-23T15:22:13;72.53;;;30.95;;
21800;SDS011;11062;51.164;16.924;2022-10-23T15:24:44;46.25;;;15.18;;
21800;SDS011;11062;51.164;16.924;2022-10-23T15:29:52;43.88;;;7.10;;
21800;SDS011;11062;51.164;16.924;2022-10-23T15:32:20;44.70;;;7.03;;
21800;SDS011;11062;51.164;16.924;2022-10-23T15:34:47;37.30;;;6.45;;
21800;SDS011;11062;51.164;16.924;2022-10-23T15:37:13;54.72;;;7.60;;
21800;SDS011;11062;51.164;16.924;2022-10-23T15:39:42;44.65;;;6.38;;
21800;SDS011;11062;51.164;16.924;2022-10-23T15:42:09;47.35;;;7.50;;
21800;SDS011;11062;51.164;16.924;2022-10-23T15:44:35;44.95;;;6.82;;
21800;SDS011;11062;51.164;16.924;2022-10-23T15:47:04;48.25;;;7.30;;
21800;SDS011;11062;51.164;16.924;2022-10-23T15:49:30;57.75;;;7.88;;
21800;SDS011;11062;51.164;16.924;2022-10-23T15:51:56;58.78;;;7.80;;
21800;SDS011;11062;51.164;16.924;2022-10-23T15:55:00;52.17;;;7.20;;
21800;SDS011;11062;51.164;16.924;2022-10-23T15:57:26;54.72;;;7.32;;
21800;SDS011;11062;51.164;16.924;2022-10-23T15:59:58;50.13;;;7.60;;
21800;SDS011;11062;51.164;16.924;2022-10-23T16:02:24;51.25;;;7.95;;
21800;SDS011;11062;51.164;16.924;2022-10-23T16:04:53;65.47;;;10.23;;
21800;SDS011;11062;51.164;16.924;2022-10-23T16:07:19;104.30;;;36.25;;
21800;SDS011;11062;51.164;16.924;2022-10-23T16:09:45;59.78;;;15.48;;
21800;SDS011;11062;51.164;16.924;2022-10-23T16:12:11;46.47;;;7.80;;
21800;SDS011;11062;51.164;16.924;2022-10-23T16:14:37;43.20;;;8.38;;
21800;SDS011;11062;51.164;16.924;2022-10-23T16:17:03;85.82;;;12.35;;
21800;SDS011;11062;51.164;16.924;2022-10-23T16:19:31;49.10;;;7.63;;
21800;SDS011;11062;51.164;16.924;2022-10-23T16:21:58;34.00;;;8.02;;
21800;SDS011;11062;51.164;16.924;2022-10-23T16:24:27;36.72;;;9.10;;
21800;SDS011;11062;51.164;16.924;2022-10-23T16:26:53;39.92;;;7.50;;
21800;SDS011;11062;51.164;16.924;2022-10-23T16:29:21;29.35;;;6.60;;
21800;SDS011;11062;51.164;16.924;2022-10-23T16:31:55;31.02;;;7.53;;
21800;SDS011;11062;51.164;16.924;2022-10-23T16:34:24;37.97;;;7.55;;
21800;SDS011;11062;51.164;16.924;2022-10-23T16:36:50;46.17;;;8.05;;
21800;SDS011;11062;51.164;16.924;2022-10-23T16:39:17;47.22;;;10.65;;
21800;SDS011;11062;51.164;16.924;2022-10-23T16:41:44;44.25;;;11.50;;
21800;SDS011;11062;51.164;16.924;2022-10-23T16:44:13;61.58;;;17.83;;
21800;SDS011;11062;51.164;16.924;2022-10-23T16:46:39;40.90;;;10.02;;
21800;SDS011;11062;51.164;16.924;2022-10-23T16:49:05;39.08;;;8.60;;
21800;SDS011;11062;51.164;16.924;2022-10-23T16:51:35;35.22;;;6.90;;
21800;SDS011;11062;51.164;16.924;2022-10-23T16:54:01;51.17;;;7.93;;
21800;SDS011;11062;51.164;16.924;2022-10-23T16:56:30;72.38;;;9.45;;
21800;SDS011;11062;51.164;16.924;2022-10-23T16:58:59;67.15;;;9.45;;
21800;SDS011;11062;51.164;16.924;2022-10-23T17:01:29;65.38;;;9.80;;
21800;SDS011;11062;51.164;16.924;2022-10-23T17:03:56;66.78;;;9.60;;
21800;SDS011;11062;51.164;16.924;2022-10-23T17:06:23;77.70;;;10.18;;
21800;SDS011;11062;51.164;16.924;2022-10-23T17:08:54;59.97;;;9.30;;
21800;SDS011;11062;51.164;16.924;2022-10-23T17:11:25;77.20;;;10.15;;
21800;SDS011;11062;51.164;16.924;2022-10-23T17:13:59;98.03;;;11.15;;
21800;SDS011;11062;51.164;16.924;2022-10-23T17:16:34;74.88;;;18.33;;
21800;SDS011;11062;51.164;16.924;2022-10-23T17:19:03;84.45;;;14.05;;
21800;SDS011;11062;51.164;16.924;2022-10-23T17:21:31;65.93;;;10.90;;
21800;SDS011;11062;51.164;16.924;2022-10-23T17:23:59;64.78;;;10.40;;
21800;SDS011;11062;51.164;16.924;2022-10-23T17:26:25;58.97;;;9.25;;
21800;SDS011;11062;51.164;16.924;2022-10-23T17:28:52;58.65;;;8.35;;
21800;SDS011;11062;51.164;16.924;2022-10-23T17:31:21;66.65;;;10.60;;
21800;SDS011;11062;51.164;16.924;2022-10-23T17:33:50;42.33;;;9.15;;
21800;SDS011;11062;51.164;16.924;2022-10-23T17:36:21;122.70;;;36.88;;
21800;SDS011;11062;51.164;16.924;2022-10-23T17:38:49;95.68;;;29.50;;
21800;SDS011;11062;51.164;16.924;2022-10-23T17:41:16;91.38;;;26.90;;
21800;SDS011;11062;51.164;16.924;2022-10-23T17:43:44;72.57;;;21.27;;
21800;SDS011;11062;51.164;16.924;2022-10-23T17:46:13;72.07;;;20.80;;
21800;SDS011;11062;51.164;16.924;2022-10-23T17:48:40;75.60;;;26.80;;
21800;SDS011;11062;51.164;16.924;2022-10-23T17:51:11;71.80;;;19.85;;
21800;SDS011;11062;51.164;16.924;2022-10-23T17:53:42;69.38;;;23.33;;
21800;SDS011;11062;51.164;16.924;2022-10-23T17:56:11;99.00;;;35.85;;
21800;SDS011;11062;51.164;16.924;2022-10-23T17:58:46;61.60;;;21.38;;
21800;SDS011;11062;51.164;16.924;2022-10-23T18:01:14;82.38;;;25.25;;
21800;SDS011;11062;51.164;16.924;2022-10-23T18:03:41;96.75;;;33.80;;
21800;SDS011;11062;51.164;16.924;2022-10-23T18:06:08;77.25;;;29.45;;
21800;SDS011;11062;51.164;16.924;2022-10-23T18:08:37;107.80;;;45.13;;
21800;SDS011;11062;51.164;16.924;2022-10-23T18:11:04;97.65;;;37.38;;
21800;SDS011;11062;51.164;16.924;2022-10-23T18:13:32;91.10;;;33.92;;
21800;SDS011;11062;51.164;16.924;2022-10-23T18:16:00;83.85;;;29.95;;
21800;SDS011;11062;51.164;16.924;2022-10-23T18:18:31;69.72;;;17.48;;
21800;SDS011;11062;51.164;16.924;2022-10-23T18:20:57;57.92;;;11.82;;
21800;SDS011;11062;51.164;16.924;2022-10-23T18:23:28;48.80;;;9.35;;
21800;SDS011;11062;51.164;16.924;2022-10-23T18:26:09;54.10;;;13.65;;
21800;SDS011;11062;51.164;16.924;2022-10-23T18:28:40;80.20;;;14.88;;
21800;SDS011;11062;51.164;16.924;2022-10-23T18:31:09;60.30;;;15.75;;
21800;SDS011;11062;51.164;16.924;2022-10-23T18:33:38;89.00;;;23.25;;
21800;SDS011;11062;51.164;16.924;2022-10-23T18:36:12;88.10;;;23.33;;
21800;SDS011;11062;51.164;16.924;2022-10-23T18:41:07;68.75;;;12.20;;
21800;SDS011;11062;51.164;16.924;2022-10-23T18:43:33;71.82;;;12.40;;
21800;SDS011;11062;51.164;16.924;2022-10-23T18:45:59;123.95;;;29.92;;
21800;SDS011;11062;51.164;16.924;2022-10-23T18:48:25;133.27;;;39.17;;
21800;SDS011;11062;51.164;16.924;2022-10-23T18:50:51;151.05;;;41.08;;
21800;SDS011;11062;51.164;16.924;2022-10-23T18:53:17;91.45;;;29.40;;
21800;SDS011;11062;51.164;16.924;2022-10-23T18:55:43;108.38;;;24.35;;
21800;SDS011;11062;51.164;16.924;2022-10-23T18:58:10;116.32;;;33.22;;
21800;SDS011;11062;51.164;16.924;2022-10-23T19:00:36;124.88;;;33.08;;
21800;SDS011;11062;51.164;16.924;2022-10-23T19:03:11;90.97;;;24.85;;
21800;SDS011;11062;51.164;16.924;2022-10-23T19:05:42;73.72;;;15.57;;
21800;SDS011;11062;51.164;16.924;2022-10-23T19:08:09;95.10;;;15.30;;
21800;SDS011;11062;51.164;16.924;2022-10-23T19:10:35;62.65;;;11.52;;
21800;SDS011;11062;51.164;16.924;2022-10-23T19:13:02;70.90;;;12.52;;
21800;SDS011;11062;51.164;16.924;2022-10-23T19:15:28;50.65;;;10.90;;
21800;SDS011;11062;51.164;16.924;2022-10-23T19:17:55;72.85;;;12.13;;
21800;SDS011;11062;51.164;16.924;2022-10-23T19:20:22;95.57;;;16.63;;
21800;SDS011;11062;51.164;16.924;2022-10-23T19:22:48;80.38;;;17.40;;
21800;SDS011;11062;51.164;16.924;2022-10-23T19:25:18;40.72;;;14.27;;
21800;SDS011;11062;51.164;16.924;2022-10-23T19:27:49;104.55;;;23.98;;
21800;SDS011;11062;51.164;16.924;2022-10-23T19:30:17;132.00;;;57.40;;
21800;SDS011;11062;51.164;16.924;2022-10-23T19:32:44;108.57;;;28.00;;
21800;SDS011;11062;51.164;16.924;2022-10-23T19:35:14;69.80;;;19.83;;
21800;SDS011;11062;51.164;16.924;2022-10-23T19:37:42;100.43;;;15.45;;
21800;SDS011;11062;51.164;16.924;2022-10-23T19:40:08;81.57;;;14.30;;
21800;SDS011;11062;51.164;16.924;2022-10-23T19:42:35;79.05;;;18.17;;
21800;SDS011;11062;51.164;16.924;2022-10-23T19:45:03;75.50;;;13.07;;
21800;SDS011;11062;51.164;16.924;2022-10-23T19:47:30;86.72;;;15.88;;
21800;SDS011;11062;51.164;16.924;2022-10-23T19:49:56;82.50;;;15.95;;
21800;SDS011;11062;51.164;16.924;2022-10-23T19:52:22;105.70;;;22.85;;
21800;SDS011;11062;51.164;16.924;2022-10-23T19:54:49;108.93;;;25.52;;
21800;SDS011;11062;51.164;16.924;2022-10-23T19:57:15;114.50;;;49.55;;
21800;SDS011;11062;51.164;16.924;2022-10-23T19:59:41;103.20;;;48.50;;
21800;SDS011;11062;51.164;16.924;2022-10-23T20:02:07;104.60;;;34.25;;
21800;SDS011;11062;51.164;16.924;2022-10-23T20:04:33;135.65;;;40.13;;
21800;SDS011;11062;51.164;16.924;2022-10-23T20:06:59;141.18;;;44.97;;
21800;SDS011;11062;51.164;16.924;2022-10-23T20:09:26;122.82;;;33.70;;
21800;SDS011;11062;51.164;16.924;2022-10-23T20:11:52;116.07;;;28.92;;
21800;SDS011;11062;51.164;16.924;2022-10-23T20:14:18;111.05;;;34.72;;
21800;SDS011;11062;51.164;16.924;2022-10-23T20:16:44;99.00;;;29.13;;
21800;SDS011;11062;51.164;16.924;2022-10-23T20:21:55;76.88;;;15.50;;
21800;SDS011;11062;51.164;16.924;2022-10-23T20:24:21;99.45;;;21.58;;
21800;SDS011;11062;51.164;16.924;2022-10-23T20:26:51;55.28;;;17.23;;
21800;SDS011;11062;51.164;16.924;2022-10-23T20:29:19;33.40;;;9.57;;
21800;SDS011;11062;51.164;16.924;2022-10-23T20:31:53;54.53;;;12.60;;
21800;SDS011;11062;51.164;16.924;2022-10-23T20:34:19;35.42;;;8.73;;
21800;SDS011;11062;51.164;16.924;2022-10-23T20:36:46;48.30;;;16.33;;
21800;SDS011;11062;51.164;16.924;2022-10-23T20:39:14;55.83;;;16.15;;
21800;SDS011;11062;51.164;16.924;2022-10-23T20:41:43;50.50;;;22.70;;
21800;SDS011;11062;51.164;16.924;2022-10-23T20:44:10;50.65;;;14.68;;
21800;SDS011;11062;51.164;16.924;2022-10-23T20:46:38;53.75;;;22.65;;
21800;SDS011;11062;51.164;16.924;2022-10-23T20:49:04;104.22;;;57.20;;
21800;SDS011;11062;51.164;16.924;2022-10-23T20:51:30;64.75;;;27.30;;
21800;SDS011;11062;51.164;16.924;2022-10-23T20:53:56;206.05;;;113.57;;
21800;SDS011;11062;51.164;16.924;2022-10-23T20:56:24;62.92;;;27.38;;
21800;SDS011;11062;51.164;16.924;2022-10-23T20:58:54;104.65;;;46.53;;
21800;SDS011;11062;51.164;16.924;2022-10-23T21:01:21;75.50;;;31.92;;
21800;SDS011;11062;51.164;16.924;2022-10-23T21:03:49;49.13;;;20.88;;